Terminal Aerodrome Forecast
Issued by NWS Goodland, KS

Home | Current Version | Previous Version | Text Only | Print | Product List | Glossary On
Versions: 1 2 3 4 5 6 7 8 9 10 11 12 13 14 15 16 17 18
000
FTUS43 KGLD 261725
TAFGLD
TAF
KGLD 261725Z 2618/2718 15010KT P6SM SCT015 BKN200
     FM262000 16010KT P6SM SCT070 SCT120 SCT250
     FM262300 16008KT P6SM VCTS SCT070CB BKN110
     FM270200 15007KT P6SM -TSRA SCT070CB BKN110
     FM270900 17005KT P6SM VCTS SCT007 SCT025 BKN100CB
     FM271200 18005KT P6SM VCSH SCT007 BKN025
     FM271700 18010KT P6SM SCT025 BKN050=

USA.gov is the U.S. government's official web portal to all federal, state and local government web resources and services.